createdAt,value
2023-02-07T00:00:49.878Z,104074.38
2023-02-07T00:03:33.160Z,104041.47
2023-02-07T00:06:31.283Z,103972.88
2023-02-07T00:09:19.339Z,104073.63
2023-02-07T00:11:58.262Z,104062.53
2023-02-07T00:14:27.227Z,104147.19
2023-02-07T00:16:54.532Z,104100.59
2023-02-07T00:19:26.977Z,104141.06
2023-02-07T00:22:11.063Z,104057.88
2023-02-07T00:25:40.718Z,104146.25
2023-02-07T00:30:26.646Z,104029.44
2023-02-07T00:32:56.836Z,103997.13
2023-02-07T00:35:28.533Z,103995.16
2023-02-07T00:38:36.447Z,104064.00
2023-02-07T00:41:26.624Z,104012.81
2023-02-07T00:44:08.912Z,104062.78
2023-02-07T00:47:07.762Z,104029.81
2023-02-07T00:49:55.238Z,103980.06
2023-02-07T00:55:09.530Z,103966.59
2023-02-07T00:58:03.742Z,104056.91
2023-02-07T01:00:38.917Z,104001.22
2023-02-07T01:03:18.165Z,103971.41
2023-02-07T01:05:51.300Z,104027.66
2023-02-07T01:08:31.702Z,104067.59
2023-02-07T01:11:26.481Z,103990.59
2023-02-07T01:14:00.895Z,104036.72
2023-02-07T01:16:45.090Z,103978.91
2023-02-07T01:22:06.725Z,103966.75
2023-02-07T01:24:36.570Z,104080.34
2023-02-07T01:27:12.213Z,103977.91
2023-02-07T01:29:44.907Z,104077.50
2023-02-07T01:32:13.411Z,104005.59
2023-02-07T01:34:57.885Z,103992.34
2023-02-07T01:37:32.780Z,103977.44
2023-02-07T01:40:00.810Z,103984.84
2023-02-07T01:42:40.544Z,103971.88
2023-02-07T01:45:55.629Z,103972.25
2023-02-07T01:48:44.383Z,104074.13
2023-02-07T01:51:26.446Z,103980.16
2023-02-07T01:54:22.140Z,103975.19
2023-02-07T02:06:25.811Z,103961.16
2023-02-07T02:08:59.517Z,104028.75
2023-02-07T02:11:47.587Z,104143.25
2023-02-07T02:14:45.633Z,104149.03
2023-02-07T02:17:46.073Z,104141.09
2023-02-07T02:21:01.542Z,104065.81
2023-02-07T02:24:14.946Z,104145.84
2023-02-07T02:27:09.830Z,104135.72
2023-02-07T02:33:18.246Z,104137.03
2023-02-07T02:35:53.976Z,104137.78
2023-02-07T02:38:38.937Z,104120.66
2023-02-07T02:41:12.810Z,104113.91
2023-02-07T02:44:06.791Z,104127.75
2023-02-07T02:46:37.333Z,104134.63
2023-02-07T02:49:06.588Z,104131.19
2023-02-07T02:51:33.391Z,104139.69
2023-02-07T02:54:00.591Z,104139.13
2023-02-07T02:56:44.382Z,104147.94
2023-02-07T02:59:29.720Z,104146.53
2023-02-07T03:02:02.717Z,104154.13
2023-02-07T03:04:37.127Z,104140.09
2023-02-07T03:07:03.630Z,104151.28
2023-02-07T03:09:59.212Z,104140.47
2023-02-07T03:12:44.174Z,104140.81
2023-02-07T03:15:31.380Z,104135.44
2023-02-07T03:18:06.282Z,104127.84
2023-02-07T03:20:55.825Z,104096.94
2023-02-07T03:23:23.259Z,104106.47
2023-02-07T03:25:52.278Z,104111.16
2023-02-07T03:28:22.058Z,104091.13
2023-02-07T03:30:51.905Z,104127.91
2023-02-07T03:33:20.728Z,104120.47
2023-02-07T03:36:08.320Z,104112.03
2023-02-07T03:38:35.982Z,104127.09
2023-02-07T03:41:12.381Z,104118.84
2023-02-07T03:43:40.785Z,104089.00
2023-02-07T03:46:09.689Z,104102.09
2023-02-07T03:48:36.512Z,104102.25
2023-02-07T03:51:03.440Z,104122.59
2023-02-07T03:53:30.259Z,104127.84
2023-02-07T03:55:56.839Z,104112.16
2023-02-07T03:58:23.393Z,104105.69
2023-02-07T04:00:50.996Z,104113.63
2023-02-07T04:03:17.676Z,104125.63
2023-02-07T04:05:47.319Z,104082.16
2023-02-07T04:08:17.183Z,104069.00
2023-02-07T04:10:44.014Z,104073.09
2023-02-07T04:13:10.772Z,104062.81
2023-02-07T04:15:41.166Z,104067.56
2023-02-07T04:18:07.928Z,104060.63
2023-02-07T04:20:36.839Z,104063.09
2023-02-07T04:23:03.476Z,104084.06
2023-02-07T04:25:43.644Z,104083.25
2023-02-07T04:28:12.464Z,104066.22
2023-02-07T04:30:42.170Z,104070.75
2023-02-07T04:33:08.923Z,104066.72
2023-02-07T04:35:35.611Z,104076.81
2023-02-07T04:38:04.035Z,104059.28
2023-02-07T04:40:30.815Z,104083.94
2023-02-07T04:43:00.249Z,104110.13
2023-02-07T04:45:27.120Z,104099.50
2023-02-07T04:47:56.754Z,104079.47
2023-02-07T04:50:23.515Z,104084.81
2023-02-07T04:52:52.433Z,104105.56
2023-02-07T04:55:25.344Z,104090.28
2023-02-07T04:57:56.227Z,104074.69
2023-02-07T05:00:29.126Z,104057.06
2023-02-07T05:03:00.616Z,104063.50
2023-02-07T05:05:27.632Z,104060.88
2023-02-07T05:07:56.331Z,104083.00
2023-02-07T05:10:23.038Z,104071.00
2023-02-07T05:12:51.427Z,104060.38
2023-02-07T05:15:20.295Z,104058.41
2023-02-07T05:17:50.004Z,104046.16
2023-02-07T05:20:28.721Z,104099.91
2023-02-07T05:23:04.573Z,104096.66
2023-02-07T05:25:38.684Z,104053.47
2023-02-07T05:28:24.610Z,104055.84
2023-02-07T05:31:15.899Z,104120.25
2023-02-07T05:33:56.345Z,104055.50
2023-02-07T05:36:26.970Z,104065.47
2023-02-07T05:41:48.047Z,104078.44
2023-02-07T05:47:14.902Z,104074.59
2023-02-07T05:49:51.911Z,104114.16
2023-02-07T05:52:23.568Z,104077.13
2023-02-07T05:54:54.609Z,104075.19
2023-02-07T05:57:28.603Z,104080.19
2023-02-07T06:00:03.035Z,104086.97
2023-02-07T06:02:40.729Z,104076.44
2023-02-07T06:05:25.893Z,104106.44
2023-02-07T06:08:01.446Z,104100.38
2023-02-07T06:10:32.353Z,104090.16
2023-02-07T06:13:02.102Z,104084.69
2023-02-07T06:15:32.091Z,104070.47
2023-02-07T06:23:07.773Z,104076.06
2023-02-07T06:28:58.955Z,104100.59
2023-02-07T06:32:17.501Z,104077.56
2023-02-07T06:37:57.332Z,104106.88
2023-02-07T06:43:14.669Z,104002.25
2023-02-07T06:45:41.629Z,104122.50
2023-02-07T06:48:09.969Z,104136.22
2023-02-07T06:50:36.970Z,104127.88
2023-02-07T06:53:03.967Z,104140.00
2023-02-07T06:55:37.944Z,104136.22
2023-02-07T06:58:06.397Z,104130.28
2023-02-07T07:00:33.046Z,104134.19
2023-02-07T07:03:00.465Z,104143.19
2023-02-07T07:05:28.379Z,104142.69
2023-02-07T07:07:55.358Z,104125.53
2023-02-07T07:10:22.185Z,104141.41
2023-02-07T07:12:48.975Z,104143.44
2023-02-07T07:15:15.731Z,104137.13
2023-02-07T07:17:42.704Z,104137.13
2023-02-07T07:20:10.107Z,104138.38
2023-02-07T07:22:36.709Z,104135.84
2023-02-07T07:25:04.471Z,104135.66
2023-02-07T07:27:31.147Z,104152.09
2023-02-07T07:29:57.828Z,104154.44
2023-02-07T07:32:33.665Z,104151.91
2023-02-07T07:35:01.330Z,104156.22
2023-02-07T07:37:27.881Z,104164.56
2023-02-07T07:39:54.529Z,104160.25
2023-02-07T07:42:21.141Z,104157.28
2023-02-07T07:44:47.707Z,104164.00
2023-02-07T07:47:14.301Z,104165.81
2023-02-07T07:49:41.276Z,104149.69
2023-02-07T07:52:08.001Z,104157.25
2023-02-07T07:54:34.748Z,104149.31
2023-02-07T07:57:01.340Z,104166.97
2023-02-07T07:59:27.976Z,104162.66
2023-02-07T08:01:54.556Z,104164.59
2023-02-07T08:04:21.166Z,104174.34
2023-02-07T08:06:48.273Z,104177.00
2023-02-07T08:09:14.941Z,104171.94
2023-02-07T08:11:41.475Z,104177.66
2023-02-07T08:14:08.146Z,104157.13
2023-02-07T08:16:34.971Z,104179.84
2023-02-07T08:19:01.642Z,104172.94
2023-02-07T08:21:28.230Z,104173.25
2023-02-07T08:23:54.781Z,104179.16
2023-02-07T08:26:21.562Z,104170.81
2023-02-07T08:28:49.563Z,104187.34
2023-02-07T08:31:16.339Z,104155.97
2023-02-07T08:33:42.994Z,104172.31
2023-02-07T08:36:11.186Z,104178.94
2023-02-07T08:38:38.238Z,104171.28
2023-02-07T08:41:05.727Z,104172.50
2023-02-07T08:43:32.526Z,104183.31
2023-02-07T08:46:00.651Z,104184.69
2023-02-07T08:48:27.513Z,104180.53
2023-02-07T08:50:54.601Z,104188.63
2023-02-07T08:53:21.373Z,104185.25
2023-02-07T08:55:48.447Z,104179.38
2023-02-07T08:58:14.980Z,104174.63
2023-02-07T09:00:41.894Z,104183.94
2023-02-07T09:03:08.760Z,104168.91
2023-02-07T09:05:35.489Z,104166.84
2023-02-07T09:08:03.036Z,104166.84
2023-02-07T09:10:29.981Z,104174.94
2023-02-07T09:12:56.629Z,104172.31
2023-02-07T09:15:23.307Z,104177.56
2023-02-07T09:17:49.927Z,104171.50
2023-02-07T09:20:16.677Z,104175.56
2023-02-07T09:23:01.822Z,104189.91
2023-02-07T09:25:28.941Z,104184.44
2023-02-07T09:27:55.983Z,104173.28
2023-02-07T09:30:22.808Z,104173.44
2023-02-07T09:32:49.381Z,104171.97
2023-02-07T09:35:16.033Z,104169.03
2023-02-07T09:37:49.299Z,104162.19
2023-02-07T09:40:19.575Z,104167.72
2023-02-07T09:43:17.808Z,104169.09
2023-02-07T09:45:49.869Z,104168.19
2023-02-07T09:48:34.718Z,104169.72
2023-02-07T09:51:05.624Z,104164.34
2023-02-07T09:53:41.033Z,104155.69
2023-02-07T09:56:09.750Z,104165.31
2023-02-07T09:58:55.854Z,104173.72
2023-02-07T10:01:26.827Z,104176.84
2023-02-07T10:04:23.300Z,104181.66
2023-02-07T10:06:53.434Z,104183.78
2023-02-07T10:09:33.095Z,104183.44
2023-02-07T10:12:38.626Z,104180.72
2023-02-07T10:15:31.994Z,104177.34
2023-02-07T10:18:24.254Z,104174.19
2023-02-07T10:21:00.784Z,104176.31
2023-02-07T10:23:39.541Z,104176.66
2023-02-07T10:26:18.473Z,104180.84
2023-02-07T10:29:26.741Z,104190.44
2023-02-07T10:31:55.904Z,104184.31
2023-02-07T10:34:26.052Z,104198.38
2023-02-07T10:36:56.223Z,104188.22
2023-02-07T10:39:22.780Z,104196.75
2023-02-07T10:41:49.530Z,104185.41
2023-02-07T10:44:20.389Z,104190.78
2023-02-07T10:46:55.130Z,104200.50
2023-02-07T10:49:25.977Z,104193.78
2023-02-07T10:51:56.928Z,104194.84
2023-02-07T10:54:24.947Z,104186.47
2023-02-07T10:57:02.261Z,104195.47
2023-02-07T10:59:48.028Z,104184.84
2023-02-07T11:02:23.696Z,104188.41
2023-02-07T11:04:50.237Z,104178.53
2023-02-07T11:07:16.804Z,104176.88
2023-02-07T11:09:43.532Z,104166.56
2023-02-07T11:12:16.509Z,104178.69
2023-02-07T11:15:01.355Z,104183.63
2023-02-07T11:17:28.885Z,104182.56
2023-02-07T11:19:56.008Z,104173.88
2023-02-07T11:22:24.935Z,104161.59
2023-02-07T11:24:59.567Z,104163.25
2023-02-07T11:27:26.407Z,104160.69
2023-02-07T11:29:59.323Z,104150.81
2023-02-07T11:32:28.240Z,104160.06
2023-02-07T11:35:01.714Z,104152.13
2023-02-07T11:37:29.827Z,104143.31
2023-02-07T11:40:17.701Z,104141.66
2023-02-07T11:42:44.828Z,104146.84
2023-02-07T11:45:17.602Z,104135.72
2023-02-07T11:47:48.927Z,104135.97
2023-02-07T11:50:29.899Z,104127.00
2023-02-07T11:53:00.147Z,104126.25
2023-02-07T11:55:35.295Z,104124.63
2023-02-07T11:58:17.951Z,104125.31
2023-02-07T12:00:45.218Z,104127.78
2023-02-07T12:03:27.675Z,104116.78
2023-02-07T12:05:57.540Z,104127.69
2023-02-07T12:08:28.122Z,104104.19
2023-02-07T12:10:58.817Z,104121.78
2023-02-07T12:13:46.496Z,104124.41
2023-02-07T12:16:21.517Z,104119.63
2023-02-07T12:19:01.747Z,104127.63
2023-02-07T12:21:38.666Z,104126.59
2023-02-07T12:24:18.857Z,104122.44
2023-02-07T12:26:54.080Z,104125.13
2023-02-07T12:30:02.430Z,104130.13
2023-02-07T12:32:44.747Z,104116.03
2023-02-07T12:35:18.521Z,104120.41
2023-02-07T12:37:54.430Z,104119.16
2023-02-07T12:40:56.091Z,104117.13
2023-02-07T12:43:33.491Z,104115.03
2023-02-07T12:46:00.660Z,104120.34
2023-02-07T12:48:39.394Z,104124.81
2023-02-07T12:51:26.309Z,104097.31
2023-02-07T12:53:58.866Z,104117.16
2023-02-07T12:56:45.764Z,104113.50
2023-02-07T12:59:47.299Z,104100.34
2023-02-07T13:02:36.027Z,104103.94
2023-02-07T13:05:17.664Z,104107.44
2023-02-07T13:08:06.091Z,104104.66
2023-02-07T13:11:08.538Z,104101.00
2023-02-07T13:13:53.462Z,104096.31
2023-02-07T13:16:31.573Z,104088.09
2023-02-07T13:19:10.334Z,104083.38
2023-02-07T13:21:49.376Z,104087.34
2023-02-07T13:24:20.356Z,104084.31
2023-02-07T13:26:54.768Z,104082.28
2023-02-07T13:29:24.251Z,104076.66
2023-02-07T13:31:55.457Z,104077.00
2023-02-07T13:34:26.293Z,104082.03
2023-02-07T13:36:53.865Z,104082.28
2023-02-07T13:39:35.712Z,104076.19
2023-02-07T13:42:26.974Z,104072.66
2023-02-07T13:45:24.755Z,104067.81
2023-02-07T13:48:16.801Z,104075.88
2023-02-07T13:50:53.426Z,104067.31
2023-02-07T13:53:38.249Z,104072.09
2023-02-07T13:56:32.673Z,104065.56
2023-02-07T13:59:18.982Z,104068.09
2023-02-07T14:01:54.446Z,104057.47
2023-02-07T14:04:22.815Z,104056.09
2023-02-07T14:07:01.580Z,104067.06
2023-02-07T14:09:32.691Z,104064.00
2023-02-07T14:12:02.661Z,104061.69
2023-02-07T14:14:33.091Z,104071.78
2023-02-07T14:17:09.031Z,104069.34
2023-02-07T14:19:41.431Z,104075.63
2023-02-07T14:22:29.516Z,104071.00
2023-02-07T14:24:58.832Z,104070.88
2023-02-07T14:27:33.968Z,104076.75
2023-02-07T14:30:00.591Z,104071.50
2023-02-07T14:32:31.194Z,104075.06
2023-02-07T14:35:16.543Z,104072.22
2023-02-07T14:37:54.002Z,104070.69
2023-02-07T14:40:22.793Z,104071.47
2023-02-07T14:43:23.777Z,104073.34
2023-02-07T14:45:50.416Z,104070.31
2023-02-07T14:48:47.900Z,104071.91
2023-02-07T14:51:18.351Z,104063.22
2023-02-07T14:53:50.849Z,104044.00
2023-02-07T14:56:33.948Z,104052.84
2023-02-07T14:59:00.658Z,104054.09
2023-02-07T15:01:27.216Z,104062.72
2023-02-07T15:04:04.257Z,104058.13
2023-02-07T15:06:40.862Z,104060.31
2023-02-07T15:09:18.593Z,104039.94
2023-02-07T15:11:47.750Z,104059.72
2023-02-07T15:14:31.918Z,104045.81
2023-02-07T15:17:00.419Z,104026.47
2023-02-07T15:19:36.835Z,104046.84
2023-02-07T15:22:11.794Z,104044.38
2023-02-07T15:24:51.878Z,104053.78
2023-02-07T15:27:21.403Z,104059.34
2023-02-07T15:29:58.364Z,104047.00
2023-02-07T15:32:31.006Z,104056.44
2023-02-07T15:34:58.337Z,104053.69
2023-02-07T15:37:26.208Z,104055.38
2023-02-07T15:39:54.807Z,104043.25
2023-02-07T15:42:24.132Z,104046.75
2023-02-07T15:44:55.895Z,104057.97
2023-02-07T15:47:28.512Z,104059.75
2023-02-07T15:50:22.922Z,104054.88
2023-02-07T15:52:53.004Z,104049.44
2023-02-07T15:55:43.532Z,104048.91
2023-02-07T15:58:23.222Z,104028.16
2023-02-07T16:00:49.809Z,104033.94
2023-02-07T16:03:23.466Z,104051.16
2023-02-07T16:06:06.055Z,104045.50
2023-02-07T16:08:40.612Z,104059.41
2023-02-07T16:11:25.794Z,104053.91
2023-02-07T16:14:15.748Z,104057.44
2023-02-07T16:16:52.729Z,104059.63
2023-02-07T16:19:32.329Z,104067.16
2023-02-07T16:22:08.487Z,104051.81
2023-02-07T16:24:38.063Z,104060.84
2023-02-07T16:27:05.915Z,104057.44
2023-02-07T16:29:33.675Z,104061.63
2023-02-07T16:32:39.449Z,104058.09
2023-02-07T16:35:24.729Z,104054.81
2023-02-07T16:37:51.953Z,104063.22
2023-02-07T16:40:20.150Z,104041.56
2023-02-07T16:42:46.997Z,104035.44
2023-02-07T16:45:17.924Z,104040.81
2023-02-07T16:47:48.003Z,104034.84
2023-02-07T16:50:20.878Z,104079.09
2023-02-07T16:52:52.670Z,104071.78
2023-02-07T16:55:20.850Z,104067.25
2023-02-07T16:57:49.434Z,104075.38
2023-02-07T17:00:30.271Z,104080.88
2023-02-07T17:08:27.411Z,104047.69
2023-02-07T17:11:39.090Z,104078.47
2023-02-07T17:14:24.430Z,104022.38
2023-02-07T17:19:46.524Z,104064.47
2023-02-07T17:22:24.137Z,104023.22
2023-02-07T17:24:52.598Z,104039.16
2023-02-07T17:27:29.183Z,104051.44
2023-02-07T17:30:22.805Z,104043.34
2023-02-07T17:33:10.029Z,104026.28
2023-02-07T17:36:36.618Z,104088.63
2023-02-07T17:39:03.848Z,104061.41
2023-02-07T17:41:41.372Z,104081.28
2023-02-07T17:47:11.728Z,104074.78
2023-02-07T17:49:50.707Z,104087.19
2023-02-07T17:52:27.229Z,104052.72
2023-02-07T17:55:16.546Z,104024.31
2023-02-07T18:19:05.215Z,104077.06
2023-02-07T18:24:59.662Z,104058.50
2023-02-07T18:28:09.658Z,104080.78
2023-02-07T18:38:13.529Z,104041.44
2023-02-07T18:38:23.626Z,104089.69
2023-02-07T18:41:42.665Z,104097.88
2023-02-07T18:44:15.722Z,104035.00
2023-02-07T18:46:52.890Z,104055.88
2023-02-07T18:49:37.752Z,104065.31
2023-02-07T18:52:17.438Z,104065.41
2023-02-07T18:54:46.389Z,104059.03
2023-02-07T18:57:13.753Z,104068.03
2023-02-07T18:59:42.787Z,104098.22
2023-02-07T19:02:12.546Z,104065.91
2023-02-07T19:04:52.630Z,104063.59
2023-02-07T19:07:19.156Z,104087.44
2023-02-07T19:09:45.832Z,104088.19
2023-02-07T19:12:15.547Z,104057.66
2023-02-07T19:14:42.238Z,104093.84
2023-02-07T19:17:08.953Z,104051.13
2023-02-07T19:19:35.680Z,104095.78
2023-02-07T19:22:02.834Z,104095.63
2023-02-07T19:24:29.496Z,104078.78
2023-02-07T19:26:58.282Z,104085.09
2023-02-07T19:29:29.374Z,104099.44
2023-02-07T19:32:01.328Z,104102.41
2023-02-07T19:34:28.425Z,104103.13
2023-02-07T19:36:55.173Z,104101.34
2023-02-07T19:39:22.552Z,104094.88
2023-02-07T19:41:49.568Z,104093.50
2023-02-07T19:44:17.245Z,104093.28
2023-02-07T19:46:44.627Z,104103.22
2023-02-07T19:49:12.883Z,104106.34
2023-02-07T19:51:40.049Z,104099.13
2023-02-07T19:54:07.097Z,104100.03
2023-02-07T19:56:34.668Z,104101.75
2023-02-07T19:59:04.397Z,104124.13
2023-02-07T20:01:34.367Z,104108.09
2023-02-07T20:04:01.214Z,104108.84
2023-02-07T20:06:31.475Z,104106.47
2023-02-07T20:09:00.016Z,104099.84
2023-02-07T20:11:26.660Z,104081.88
2023-02-07T20:13:55.554Z,104104.19
2023-02-07T20:16:24.431Z,104109.56
2023-02-07T20:18:53.012Z,104083.91
2023-02-07T20:21:26.344Z,104102.44
2023-02-07T20:23:55.156Z,104107.50
2023-02-07T20:26:25.489Z,104112.00
2023-02-07T20:28:52.613Z,104102.13
2023-02-07T20:31:39.657Z,104107.50
2023-02-07T20:34:06.982Z,104079.91
2023-02-07T20:36:40.881Z,104070.56
2023-02-07T20:39:13.797Z,104084.97
2023-02-07T20:41:46.112Z,104109.22
2023-02-07T20:44:21.565Z,104100.78
2023-02-07T20:46:49.342Z,104106.69
2023-02-07T20:49:19.813Z,104098.19
2023-02-07T20:51:50.370Z,104096.66
2023-02-07T20:54:18.681Z,104081.69
2023-02-07T20:56:45.673Z,104091.81
2023-02-07T20:59:18.747Z,104070.22
2023-02-07T21:01:45.789Z,104102.59
2023-02-07T21:04:12.867Z,104062.88
2023-02-07T21:06:39.865Z,104102.25
2023-02-07T21:09:07.433Z,104058.78
2023-02-07T21:11:41.741Z,104104.28
2023-02-07T21:14:13.180Z,104104.28
2023-02-07T21:16:39.904Z,104082.72
2023-02-07T21:19:06.602Z,104093.66
2023-02-07T21:21:33.197Z,104086.06
2023-02-07T21:23:59.971Z,104078.72
2023-02-07T21:26:27.077Z,104072.03
2023-02-07T21:29:01.860Z,104087.88
2023-02-07T21:31:30.401Z,104093.84
2023-02-07T21:33:57.335Z,104086.47
2023-02-07T21:36:29.270Z,104075.69
2023-02-07T21:38:57.210Z,104086.47
2023-02-07T21:41:26.832Z,104080.19
2023-02-07T21:43:58.188Z,104065.09
2023-02-07T21:46:27.747Z,104081.81
2023-02-07T21:49:01.863Z,104091.19
2023-02-07T21:51:30.705Z,104064.16
2023-02-07T21:53:58.132Z,104068.66
2023-02-07T21:56:30.413Z,104066.75
2023-02-07T21:59:00.348Z,104061.69
2023-02-07T22:01:28.879Z,104082.78
2023-02-07T22:03:57.875Z,104084.25
2023-02-07T22:06:24.608Z,104073.13
2023-02-07T22:08:59.448Z,104072.94
2023-02-07T22:11:29.712Z,104087.34
2023-02-07T22:13:56.339Z,104088.94
2023-02-07T22:16:25.080Z,104081.59
2023-02-07T22:18:53.493Z,104084.84
2023-02-07T22:21:32.366Z,104097.84
2023-02-07T22:23:59.862Z,104085.03
2023-02-07T22:26:28.512Z,104089.91
2023-02-07T22:28:56.145Z,104083.78
2023-02-07T22:31:29.655Z,104071.38
2023-02-07T22:34:01.799Z,104081.25
2023-02-07T22:36:31.236Z,104070.47
2023-02-07T22:38:59.936Z,104079.47
2023-02-07T22:41:27.300Z,104056.09
2023-02-07T22:43:54.189Z,104071.56
2023-02-07T22:46:24.228Z,104072.09
2023-02-07T22:48:51.750Z,104071.19
2023-02-07T22:51:27.667Z,104055.00
2023-02-07T22:53:59.932Z,104055.19
2023-02-07T22:56:27.846Z,104064.56
2023-02-07T22:58:55.288Z,104060.06
2023-02-07T23:01:25.106Z,104055.19
2023-02-07T23:03:52.356Z,104065.31
2023-02-07T23:06:19.959Z,104065.44
2023-02-07T23:08:46.900Z,104061.16
2023-02-07T23:11:15.936Z,104059.19
2023-02-07T23:13:43.326Z,104065.88
2023-02-07T23:16:14.817Z,104060.81
2023-02-07T23:18:41.485Z,104064.06
2023-02-07T23:21:10.276Z,104068.22
2023-02-07T23:23:37.580Z,104068.22
2023-02-07T23:26:07.822Z,104061.25
2023-02-07T23:28:34.696Z,104070.94
2023-02-07T23:31:01.342Z,104055.28
2023-02-07T23:33:27.980Z,104049.91
2023-02-07T23:35:54.507Z,104065.91
2023-02-07T23:38:21.044Z,104039.84
2023-02-07T23:40:47.635Z,104062.31
2023-02-07T23:43:14.349Z,104071.38
2023-02-07T23:45:40.873Z,104069.22
2023-02-07T23:48:07.481Z,104064.56
2023-02-07T23:50:34.703Z,104064.31
2023-02-07T23:53:01.783Z,104072.81
2023-02-07T23:55:28.340Z,104065.78
2023-02-07T23:57:55.274Z,104060.22
